KJSO

Details ICAO KJSO
Name CHEROKEE CO
Region United States
Timezone America/Chicago (UTC-6.0)
Plans Departing 2
Arriving 1
Stats Elevation 677 ft / 206 m (AMSL)
Location 31.869325° -95.217400°
Runways 1
Magnetic Variation 2.338° E
Sunrise 2017-12-13 13:13:56 UTC / 2017-12-13 07:13:56 Local
Sunset 2017-12-13 23:19:17 UTC / 2017-12-13 17:19:17 Local
Advertisement - Login to hide

Runways

ID Width Length Bearing (true) Bearing (mag) Surface Threshold Offset Overrun Length
14 75 ft / 23 m 5,017 ft / 1,529 m 140.20° 137.86° Asphalt 0 ft / 0 m 0 ft / 0 m
32 75 ft / 23 m 5,017 ft / 1,529 m 320.20° 317.86° Asphalt 0 ft / 0 m 0 ft / 0 m

Map

Weather


0- 5 10 15 20 25 30 35+ Temperature / ° C

Clouds and Precipitation
Forecast for 2017-12-14 00:00 UTC. Updated 2 hours ago

Ground ~20,000 ft ~40,000 ft Winds

METAR

KJSO 140035Z AUTO 20008KT 10SM CLR 11/00 A2996 RMK AO2 T01080006

TAF

Not found

Frequencies

Recorded 119.07 MHz AWOS 3
Approach 128.75 MHz LONGVIEW APP/DEP
Unicom 122.70 MHz CTAF/UNICOM
Warning: Do not use this data for real-world aviation or navigation. No guarantee of current accuracy is given.